sensor_id;sensor_type;location;lat;lon;timestamp;P1;durP1;ratioP1;P2;durP2;ratioP2
23222;SDS011;11780;13.904;100.620;2023-05-27T00:00:02;25.92;;;16.20;;
23222;SDS011;11780;13.904;100.620;2023-05-27T00:02:34;20.92;;;17.10;;
23222;SDS011;11780;13.904;100.620;2023-05-27T00:05:04;30.90;;;16.83;;
23222;SDS011;11780;13.904;100.620;2023-05-27T00:07:35;27.67;;;16.95;;
23222;SDS011;11780;13.904;100.620;2023-05-27T00:10:06;20.08;;;15.95;;
23222;SDS011;11780;13.904;100.620;2023-05-27T00:12:36;27.87;;;17.80;;
23222;SDS011;11780;13.904;100.620;2023-05-27T00:15:07;27.77;;;18.00;;
23222;SDS011;11780;13.904;100.620;2023-05-27T00:17:38;26.58;;;17.95;;
23222;SDS011;11780;13.904;100.620;2023-05-27T00:22:42;24.33;;;16.23;;
23222;SDS011;11780;13.904;100.620;2023-05-27T00:25:12;22.70;;;17.05;;
23222;SDS011;11780;13.904;100.620;2023-05-27T00:27:42;22.73;;;17.42;;
23222;SDS011;11780;13.904;100.620;2023-05-27T00:30:13;21.77;;;17.60;;
23222;SDS011;11780;13.904;100.620;2023-05-27T00:32:45;23.80;;;17.65;;
23222;SDS011;11780;13.904;100.620;2023-05-27T00:35:16;19.67;;;16.73;;
23222;SDS011;11780;13.904;100.620;2023-05-27T00:37:46;20.58;;;16.73;;
23222;SDS011;11780;13.904;100.620;2023-05-27T00:40:20;24.75;;;17.27;;
23222;SDS011;11780;13.904;100.620;2023-05-27T00:42:52;21.80;;;17.10;;
23222;SDS011;11780;13.904;100.620;2023-05-27T00:45:23;22.23;;;17.03;;
23222;SDS011;11780;13.904;100.620;2023-05-27T00:47:53;23.77;;;17.33;;
23222;SDS011;11780;13.904;100.620;2023-05-27T00:50:24;19.38;;;16.20;;
23222;SDS011;11780;13.904;100.620;2023-05-27T00:52:55;22.10;;;17.38;;
23222;SDS011;11780;13.904;100.620;2023-05-27T00:55:26;22.83;;;16.88;;
23222;SDS011;11780;13.904;100.620;2023-05-27T00:57:56;22.97;;;17.43;;
23222;SDS011;11780;13.904;100.620;2023-05-27T01:00:27;26.17;;;17.55;;
23222;SDS011;11780;13.904;100.620;2023-05-27T01:02:58;21.33;;;17.00;;
23222;SDS011;11780;13.904;100.620;2023-05-27T01:08:03;25.90;;;17.55;;
23222;SDS011;11780;13.904;100.620;2023-05-27T01:10:53;24.52;;;18.15;;
23222;SDS011;11780;13.904;100.620;2023-05-27T01:13:31;24.48;;;17.58;;
23222;SDS011;11780;13.904;100.620;2023-05-27T01:16:04;23.88;;;18.15;;
23222;SDS011;11780;13.904;100.620;2023-05-27T01:18:40;22.85;;;17.83;;
23222;SDS011;11780;13.904;100.620;2023-05-27T01:21:15;25.02;;;17.08;;
23222;SDS011;11780;13.904;100.620;2023-05-27T01:23:48;20.45;;;17.92;;
23222;SDS011;11780;13.904;100.620;2023-05-27T01:26:20;22.63;;;16.80;;
23222;SDS011;11780;13.904;100.620;2023-05-27T01:28:51;21.15;;;16.77;;
23222;SDS011;11780;13.904;100.620;2023-05-27T01:31:28;21.40;;;16.77;;
23222;SDS011;11780;13.904;100.620;2023-05-27T01:34:30;28.25;;;18.48;;
23222;SDS011;11780;13.904;100.620;2023-05-27T01:37:16;22.48;;;17.83;;
23222;SDS011;11780;13.904;100.620;2023-05-27T01:39:50;22.95;;;18.95;;
23222;SDS011;11780;13.904;100.620;2023-05-27T01:42:22;24.40;;;17.88;;
23222;SDS011;11780;13.904;100.620;2023-05-27T01:44:53;26.25;;;17.73;;
23222;SDS011;11780;13.904;100.620;2023-05-27T01:47:25;21.08;;;18.13;;
23222;SDS011;11780;13.904;100.620;2023-05-27T01:49:56;19.98;;;17.65;;
23222;SDS011;11780;13.904;100.620;2023-05-27T01:52:27;22.40;;;17.45;;
23222;SDS011;11780;13.904;100.620;2023-05-27T01:54:58;25.57;;;17.80;;
23222;SDS011;11780;13.904;100.620;2023-05-27T01:57:29;25.92;;;18.73;;
23222;SDS011;11780;13.904;100.620;2023-05-27T01:59:59;21.23;;;17.50;;
23222;SDS011;11780;13.904;100.620;2023-05-27T02:02:29;30.17;;;18.17;;
23222;SDS011;11780;13.904;100.620;2023-05-27T02:07:33;24.60;;;18.15;;
23222;SDS011;11780;13.904;100.620;2023-05-27T02:10:03;22.13;;;17.17;;
23222;SDS011;11780;13.904;100.620;2023-05-27T02:12:33;25.63;;;18.00;;
23222;SDS011;11780;13.904;100.620;2023-05-27T02:15:04;20.48;;;17.90;;
23222;SDS011;11780;13.904;100.620;2023-05-27T02:17:35;24.85;;;17.15;;
23222;SDS011;11780;13.904;100.620;2023-05-27T02:20:07;20.85;;;17.40;;
23222;SDS011;11780;13.904;100.620;2023-05-27T02:22:38;25.40;;;18.73;;
23222;SDS011;11780;13.904;100.620;2023-05-27T02:25:08;24.67;;;18.98;;
23222;SDS011;11780;13.904;100.620;2023-05-27T02:27:38;26.15;;;18.40;;
23222;SDS011;11780;13.904;100.620;2023-05-27T02:30:11;23.38;;;18.48;;
23222;SDS011;11780;13.904;100.620;2023-05-27T02:32:45;23.23;;;18.33;;
23222;SDS011;11780;13.904;100.620;2023-05-27T02:35:16;22.43;;;17.90;;
23222;SDS011;11780;13.904;100.620;2023-05-27T02:37:46;23.67;;;19.13;;
23222;SDS011;11780;13.904;100.620;2023-05-27T02:40:28;21.65;;;17.42;;
23222;SDS011;11780;13.904;100.620;2023-05-27T02:42:59;26.92;;;19.00;;
23222;SDS011;11780;13.904;100.620;2023-05-27T02:45:30;23.83;;;18.02;;
23222;SDS011;11780;13.904;100.620;2023-05-27T02:48:00;21.13;;;17.97;;
23222;SDS011;11780;13.904;100.620;2023-05-27T02:50:30;28.07;;;18.43;;
23222;SDS011;11780;13.904;100.620;2023-05-27T02:53:01;24.70;;;18.37;;
23222;SDS011;11780;13.904;100.620;2023-05-27T02:55:31;21.30;;;17.33;;
23222;SDS011;11780;13.904;100.620;2023-05-27T02:58:02;24.97;;;19.23;;
23222;SDS011;11780;13.904;100.620;2023-05-27T03:00:34;24.10;;;18.25;;
23222;SDS011;11780;13.904;100.620;2023-05-27T03:03:04;20.70;;;18.17;;
23222;SDS011;11780;13.904;100.620;2023-05-27T03:05:36;21.45;;;17.45;;
23222;SDS011;11780;13.904;100.620;2023-05-27T03:08:07;23.95;;;17.63;;
23222;SDS011;11780;13.904;100.620;2023-05-27T03:10:37;20.30;;;18.10;;
23222;SDS011;11780;13.904;100.620;2023-05-27T03:13:08;23.08;;;18.58;;
23222;SDS011;11780;13.904;100.620;2023-05-27T03:15:40;25.63;;;17.73;;
23222;SDS011;11780;13.904;100.620;2023-05-27T03:18:10;21.58;;;18.02;;
23222;SDS011;11780;13.904;100.620;2023-05-27T03:20:40;20.83;;;18.63;;
23222;SDS011;11780;13.904;100.620;2023-05-27T03:23:11;25.10;;;17.92;;
23222;SDS011;11780;13.904;100.620;2023-05-27T03:25:42;22.73;;;17.33;;
23222;SDS011;11780;13.904;100.620;2023-05-27T03:28:13;21.30;;;17.55;;
23222;SDS011;11780;13.904;100.620;2023-05-27T03:30:46;23.30;;;17.08;;
23222;SDS011;11780;13.904;100.620;2023-05-27T03:33:31;20.88;;;17.25;;
23222;SDS011;11780;13.904;100.620;2023-05-27T03:36:01;28.43;;;18.27;;
23222;SDS011;11780;13.904;100.620;2023-05-27T03:38:32;23.53;;;18.23;;
23222;SDS011;11780;13.904;100.620;2023-05-27T03:41:02;19.65;;;17.42;;
23222;SDS011;11780;13.904;100.620;2023-05-27T03:43:37;18.77;;;16.88;;
23222;SDS011;11780;13.904;100.620;2023-05-27T03:46:07;19.90;;;17.52;;
23222;SDS011;11780;13.904;100.620;2023-05-27T03:48:38;18.87;;;16.83;;
23222;SDS011;11780;13.904;100.620;2023-05-27T03:51:08;18.30;;;16.50;;
23222;SDS011;11780;13.904;100.620;2023-05-27T03:53:38;20.30;;;15.83;;
23222;SDS011;11780;13.904;100.620;2023-05-27T03:56:09;21.00;;;17.97;;
23222;SDS011;11780;13.904;100.620;2023-05-27T03:58:40;21.20;;;17.42;;
23222;SDS011;11780;13.904;100.620;2023-05-27T04:01:12;23.73;;;17.33;;
23222;SDS011;11780;13.904;100.620;2023-05-27T04:03:43;25.00;;;17.83;;
23222;SDS011;11780;13.904;100.620;2023-05-27T04:06:14;19.38;;;17.33;;
23222;SDS011;11780;13.904;100.620;2023-05-27T04:08:45;19.52;;;16.70;;
23222;SDS011;11780;13.904;100.620;2023-05-27T04:11:15;20.90;;;17.17;;
23222;SDS011;11780;13.904;100.620;2023-05-27T04:13:50;23.73;;;17.42;;
23222;SDS011;11780;13.904;100.620;2023-05-27T04:16:20;21.77;;;16.95;;
23222;SDS011;11780;13.904;100.620;2023-05-27T04:18:51;19.92;;;17.75;;
23222;SDS011;11780;13.904;100.620;2023-05-27T04:21:22;20.77;;;18.00;;
23222;SDS011;11780;13.904;100.620;2023-05-27T04:23:55;22.52;;;17.40;;
23222;SDS011;11780;13.904;100.620;2023-05-27T04:26:25;21.02;;;17.85;;
23222;SDS011;11780;13.904;100.620;2023-05-27T04:28:56;22.75;;;18.10;;
23222;SDS011;11780;13.904;100.620;2023-05-27T04:31:29;23.27;;;18.27;;
23222;SDS011;11780;13.904;100.620;2023-05-27T04:34:04;22.17;;;17.50;;
23222;SDS011;11780;13.904;100.620;2023-05-27T04:36:35;21.30;;;16.98;;
23222;SDS011;11780;13.904;100.620;2023-05-27T04:39:09;22.23;;;17.70;;
23222;SDS011;11780;13.904;100.620;2023-05-27T04:41:43;20.15;;;17.33;;
23222;SDS011;11780;13.904;100.620;2023-05-27T04:44:26;19.90;;;16.80;;
23222;SDS011;11780;13.904;100.620;2023-05-27T04:46:59;26.08;;;17.70;;
23222;SDS011;11780;13.904;100.620;2023-05-27T04:49:30;20.70;;;17.30;;
23222;SDS011;11780;13.904;100.620;2023-05-27T04:54:31;19.50;;;17.48;;
23222;SDS011;11780;13.904;100.620;2023-05-27T04:57:08;22.67;;;18.70;;
23222;SDS011;11780;13.904;100.620;2023-05-27T04:59:39;24.85;;;18.10;;
23222;SDS011;11780;13.904;100.620;2023-05-27T05:02:28;21.83;;;17.38;;
23222;SDS011;11780;13.904;100.620;2023-05-27T05:05:09;22.45;;;17.75;;
23222;SDS011;11780;13.904;100.620;2023-05-27T05:07:40;22.95;;;18.45;;
23222;SDS011;11780;13.904;100.620;2023-05-27T05:10:13;22.65;;;18.48;;
23222;SDS011;11780;13.904;100.620;2023-05-27T05:12:48;21.15;;;17.45;;
23222;SDS011;11780;13.904;100.620;2023-05-27T05:15:20;24.02;;;18.85;;
23222;SDS011;11780;13.904;100.620;2023-05-27T05:17:53;21.48;;;19.05;;
23222;SDS011;11780;13.904;100.620;2023-05-27T05:20:26;22.45;;;17.83;;
23222;SDS011;11780;13.904;100.620;2023-05-27T05:22:58;25.50;;;18.83;;
23222;SDS011;11780;13.904;100.620;2023-05-27T05:25:29;23.60;;;17.95;;
23222;SDS011;11780;13.904;100.620;2023-05-27T05:27:59;19.80;;;17.83;;
23222;SDS011;11780;13.904;100.620;2023-05-27T05:30:31;23.23;;;18.95;;
23222;SDS011;11780;13.904;100.620;2023-05-27T05:33:01;22.77;;;18.77;;
23222;SDS011;11780;13.904;100.620;2023-05-27T05:35:32;22.30;;;18.63;;
23222;SDS011;11780;13.904;100.620;2023-05-27T05:38:19;22.60;;;18.05;;
23222;SDS011;11780;13.904;100.620;2023-05-27T05:40:50;20.60;;;17.40;;
23222;SDS011;11780;13.904;100.620;2023-05-27T05:43:22;20.02;;;17.33;;
23222;SDS011;11780;13.904;100.620;2023-05-27T05:45:53;22.60;;;18.60;;
23222;SDS011;11780;13.904;100.620;2023-05-27T05:48:24;24.90;;;17.93;;
23222;SDS011;11780;13.904;100.620;2023-05-27T05:50:57;25.70;;;17.77;;
23222;SDS011;11780;13.904;100.620;2023-05-27T05:53:31;21.40;;;18.55;;
23222;SDS011;11780;13.904;100.620;2023-05-27T05:56:02;19.65;;;17.55;;
23222;SDS011;11780;13.904;100.620;2023-05-27T05:58:34;19.75;;;17.35;;
23222;SDS011;11780;13.904;100.620;2023-05-27T06:03:41;21.23;;;17.33;;
23222;SDS011;11780;13.904;100.620;2023-05-27T06:06:27;19.17;;;17.05;;
23222;SDS011;11780;13.904;100.620;2023-05-27T06:09:16;20.70;;;17.83;;
23222;SDS011;11780;13.904;100.620;2023-05-27T06:11:49;19.50;;;17.45;;
23222;SDS011;11780;13.904;100.620;2023-05-27T06:14:19;22.08;;;17.65;;
23222;SDS011;11780;13.904;100.620;2023-05-27T06:16:55;24.90;;;17.77;;
23222;SDS011;11780;13.904;100.620;2023-05-27T06:19:25;19.73;;;17.57;;
23222;SDS011;11780;13.904;100.620;2023-05-27T06:21:56;22.13;;;17.40;;
23222;SDS011;11780;13.904;100.620;2023-05-27T06:25:05;21.33;;;17.27;;
23222;SDS011;11780;13.904;100.620;2023-05-27T06:27:52;19.38;;;17.38;;
23222;SDS011;11780;13.904;100.620;2023-05-27T06:30:22;19.10;;;15.83;;
23222;SDS011;11780;13.904;100.620;2023-05-27T06:32:53;23.77;;;17.33;;
23222;SDS011;11780;13.904;100.620;2023-05-27T06:35:29;19.10;;;17.00;;
23222;SDS011;11780;13.904;100.620;2023-05-27T06:37:59;19.60;;;16.58;;
23222;SDS011;11780;13.904;100.620;2023-05-27T06:40:30;18.15;;;16.10;;
23222;SDS011;11780;13.904;100.620;2023-05-27T06:43:00;23.08;;;16.60;;
23222;SDS011;11780;13.904;100.620;2023-05-27T06:45:49;20.52;;;17.40;;
23222;SDS011;11780;13.904;100.620;2023-05-27T06:48:51;19.52;;;16.90;;
23222;SDS011;11780;13.904;100.620;2023-05-27T06:51:22;18.52;;;16.00;;
23222;SDS011;11780;13.904;100.620;2023-05-27T06:53:54;20.90;;;16.65;;
23222;SDS011;11780;13.904;100.620;2023-05-27T06:56:33;20.33;;;16.67;;
23222;SDS011;11780;13.904;100.620;2023-05-27T06:59:21;22.35;;;16.17;;
23222;SDS011;11780;13.904;100.620;2023-05-27T07:01:52;17.30;;;14.77;;
23222;SDS011;11780;13.904;100.620;2023-05-27T07:04:22;21.60;;;17.00;;
23222;SDS011;11780;13.904;100.620;2023-05-27T07:06:59;21.98;;;16.05;;
23222;SDS011;11780;13.904;100.620;2023-05-27T07:09:29;19.23;;;15.63;;
23222;SDS011;11780;13.904;100.620;2023-05-27T07:12:00;18.23;;;14.90;;
23222;SDS011;11780;13.904;100.620;2023-05-27T07:14:48;19.02;;;17.02;;
23222;SDS011;11780;13.904;100.620;2023-05-27T07:17:22;19.00;;;16.00;;
23222;SDS011;11780;13.904;100.620;2023-05-27T07:19:53;20.05;;;15.85;;
23222;SDS011;11780;13.904;100.620;2023-05-27T07:24:56;22.38;;;15.88;;
23222;SDS011;11780;13.904;100.620;2023-05-27T07:27:32;22.38;;;16.25;;
23222;SDS011;11780;13.904;100.620;2023-05-27T07:30:02;18.63;;;16.63;;
23222;SDS011;11780;13.904;100.620;2023-05-27T07:32:41;17.20;;;15.40;;
23222;SDS011;11780;13.904;100.620;2023-05-27T07:35:13;19.55;;;17.02;;
23222;SDS011;11780;13.904;100.620;2023-05-27T07:37:44;19.50;;;16.85;;
23222;SDS011;11780;13.904;100.620;2023-05-27T07:40:14;21.00;;;15.37;;
23222;SDS011;11780;13.904;100.620;2023-05-27T07:42:45;20.42;;;16.25;;
23222;SDS011;11780;13.904;100.620;2023-05-27T07:45:17;19.75;;;15.60;;
23222;SDS011;11780;13.904;100.620;2023-05-27T07:47:48;19.42;;;16.63;;
23222;SDS011;11780;13.904;100.620;2023-05-27T07:50:18;19.23;;;16.50;;
23222;SDS011;11780;13.904;100.620;2023-05-27T07:53:13;18.35;;;16.27;;
23222;SDS011;11780;13.904;100.620;2023-05-27T07:55:43;18.63;;;16.58;;
23222;SDS011;11780;13.904;100.620;2023-05-27T08:01:06;24.52;;;16.25;;
23222;SDS011;11780;13.904;100.620;2023-05-27T08:03:39;21.80;;;16.85;;
23222;SDS011;11780;13.904;100.620;2023-05-27T08:06:17;21.48;;;16.60;;
23222;SDS011;11780;13.904;100.620;2023-05-27T08:08:57;17.73;;;15.88;;
23222;SDS011;11780;13.904;100.620;2023-05-27T08:11:58;19.02;;;17.02;;
23222;SDS011;11780;13.904;100.620;2023-05-27T08:14:40;18.65;;;16.15;;
23222;SDS011;11780;13.904;100.620;2023-05-27T08:17:40;21.65;;;17.05;;
23222;SDS011;11780;13.904;100.620;2023-05-27T08:20:34;19.67;;;16.63;;
23222;SDS011;11780;13.904;100.620;2023-05-27T08:23:11;18.33;;;16.38;;
23222;SDS011;11780;13.904;100.620;2023-05-27T08:26:14;18.95;;;16.20;;
23222;SDS011;11780;13.904;100.620;2023-05-27T08:28:56;19.88;;;16.92;;
23222;SDS011;11780;13.904;100.620;2023-05-27T08:31:36;18.27;;;16.05;;
23222;SDS011;11780;13.904;100.620;2023-05-27T08:34:07;21.23;;;17.50;;
23222;SDS011;11780;13.904;100.620;2023-05-27T08:36:40;21.35;;;17.10;;
23222;SDS011;11780;13.904;100.620;2023-05-27T08:39:10;16.90;;;15.10;;
23222;SDS011;11780;13.904;100.620;2023-05-27T08:41:49;20.70;;;17.80;;
23222;SDS011;11780;13.904;100.620;2023-05-27T08:44:24;20.10;;;16.70;;
23222;SDS011;11780;13.904;100.620;2023-05-27T08:47:00;20.63;;;16.92;;
23222;SDS011;11780;13.904;100.620;2023-05-27T08:49:32;21.52;;;16.67;;
23222;SDS011;11780;13.904;100.620;2023-05-27T08:52:02;21.67;;;15.77;;
23222;SDS011;11780;13.904;100.620;2023-05-27T08:54:36;20.17;;;15.45;;
23222;SDS011;11780;13.904;100.620;2023-05-27T08:57:07;19.35;;;15.52;;
23222;SDS011;11780;13.904;100.620;2023-05-27T08:59:42;22.95;;;16.70;;
23222;SDS011;11780;13.904;100.620;2023-05-27T09:02:13;20.67;;;15.48;;
23222;SDS011;11780;13.904;100.620;2023-05-27T09:07:15;20.87;;;15.83;;
23222;SDS011;11780;13.904;100.620;2023-05-27T09:09:56;22.67;;;15.60;;
23222;SDS011;11780;13.904;100.620;2023-05-27T09:12:27;17.20;;;15.32;;
23222;SDS011;11780;13.904;100.620;2023-05-27T09:14:58;19.88;;;15.52;;
23222;SDS011;11780;13.904;100.620;2023-05-27T09:17:28;19.53;;;16.70;;
23222;SDS011;11780;13.904;100.620;2023-05-27T09:19:59;20.33;;;16.58;;
23222;SDS011;11780;13.904;100.620;2023-05-27T09:22:30;20.57;;;15.90;;
23222;SDS011;11780;13.904;100.620;2023-05-27T09:25:01;19.17;;;16.20;;
23222;SDS011;11780;13.904;100.620;2023-05-27T09:27:31;23.17;;;16.60;;
23222;SDS011;11780;13.904;100.620;2023-05-27T09:30:06;19.92;;;15.52;;
23222;SDS011;11780;13.904;100.620;2023-05-27T09:32:37;22.98;;;16.05;;
23222;SDS011;11780;13.904;100.620;2023-05-27T09:35:08;19.48;;;15.70;;
23222;SDS011;11780;13.904;100.620;2023-05-27T09:37:42;18.85;;;16.85;;
23222;SDS011;11780;13.904;100.620;2023-05-27T09:40:14;22.85;;;17.02;;
23222;SDS011;11780;13.904;100.620;2023-05-27T09:42:46;22.95;;;16.83;;
23222;SDS011;11780;13.904;100.620;2023-05-27T09:45:19;21.63;;;17.20;;
23222;SDS011;11780;13.904;100.620;2023-05-27T09:47:51;20.35;;;16.80;;
23222;SDS011;11780;13.904;100.620;2023-05-27T09:50:23;22.08;;;17.80;;
23222;SDS011;11780;13.904;100.620;2023-05-27T09:52:56;19.90;;;17.50;;
23222;SDS011;11780;13.904;100.620;2023-05-27T09:55:38;20.42;;;18.27;;
23222;SDS011;11780;13.904;100.620;2023-05-27T09:58:12;19.77;;;17.13;;
23222;SDS011;11780;13.904;100.620;2023-05-27T10:03:14;21.53;;;18.33;;
23222;SDS011;11780;13.904;100.620;2023-05-27T10:05:48;21.73;;;19.48;;
23222;SDS011;11780;13.904;100.620;2023-05-27T10:08:20;21.75;;;19.35;;
23222;SDS011;11780;13.904;100.620;2023-05-27T10:10:53;22.60;;;20.23;;
23222;SDS011;11780;13.904;100.620;2023-05-27T10:13:24;22.55;;;20.35;;
23222;SDS011;11780;13.904;100.620;2023-05-27T10:15:57;22.90;;;18.88;;
23222;SDS011;11780;13.904;100.620;2023-05-27T10:18:27;22.95;;;19.58;;
23222;SDS011;11780;13.904;100.620;2023-05-27T10:20:59;26.67;;;19.63;;
23222;SDS011;11780;13.904;100.620;2023-05-27T10:23:34;22.52;;;20.10;;
23222;SDS011;11780;13.904;100.620;2023-05-27T10:28:37;23.52;;;20.75;;
23222;SDS011;11780;13.904;100.620;2023-05-27T10:31:19;21.73;;;19.55;;
23222;SDS011;11780;13.904;100.620;2023-05-27T10:33:50;24.33;;;19.17;;
23222;SDS011;11780;13.904;100.620;2023-05-27T10:36:24;24.13;;;20.17;;
23222;SDS011;11780;13.904;100.620;2023-05-27T10:38:58;23.27;;;19.23;;
23222;SDS011;11780;13.904;100.620;2023-05-27T10:41:42;24.75;;;19.95;;
23222;SDS011;11780;13.904;100.620;2023-05-27T10:44:29;23.00;;;20.40;;
23222;SDS011;11780;13.904;100.620;2023-05-27T10:47:10;23.10;;;18.83;;
23222;SDS011;11780;13.904;100.620;2023-05-27T10:49:47;27.95;;;20.50;;
23222;SDS011;11780;13.904;100.620;2023-05-27T10:52:17;22.20;;;19.85;;
23222;SDS011;11780;13.904;100.620;2023-05-27T10:54:48;21.17;;;18.88;;
23222;SDS011;11780;13.904;100.620;2023-05-27T10:57:21;25.08;;;18.65;;
23222;SDS011;11780;13.904;100.620;2023-05-27T10:59:53;22.42;;;20.13;;
23222;SDS011;11780;13.904;100.620;2023-05-27T11:02:31;23.52;;;20.00;;
23222;SDS011;11780;13.904;100.620;2023-05-27T11:05:08;23.13;;;19.90;;
23222;SDS011;11780;13.904;100.620;2023-05-27T11:07:40;21.05;;;18.95;;
23222;SDS011;11780;13.904;100.620;2023-05-27T11:10:11;22.83;;;19.13;;
23222;SDS011;11780;13.904;100.620;2023-05-27T11:12:43;24.02;;;19.45;;
23222;SDS011;11780;13.904;100.620;2023-05-27T11:15:18;26.02;;;19.42;;
23222;SDS011;11780;13.904;100.620;2023-05-27T11:17:48;22.58;;;19.00;;
23222;SDS011;11780;13.904;100.620;2023-05-27T11:20:19;24.55;;;19.10;;
23222;SDS011;11780;13.904;100.620;2023-05-27T11:22:50;25.42;;;18.63;;
23222;SDS011;11780;13.904;100.620;2023-05-27T11:25:21;22.35;;;19.35;;
23222;SDS011;11780;13.904;100.620;2023-05-27T13:48:14;29.08;;;21.67;;
23222;SDS011;11780;13.904;100.620;2023-05-27T13:50:44;26.57;;;21.10;;
23222;SDS011;11780;13.904;100.620;2023-05-27T13:53:15;24.63;;;21.98;;
23222;SDS011;11780;13.904;100.620;2023-05-27T13:55:46;30.65;;;20.40;;
23222;SDS011;11780;13.904;100.620;2023-05-27T13:58:17;23.77;;;19.77;;
23222;SDS011;11780;13.904;100.620;2023-05-27T14:00:47;29.17;;;21.47;;
23222;SDS011;11780;13.904;100.620;2023-05-27T14:03:17;23.90;;;21.38;;
23222;SDS011;11780;13.904;100.620;2023-05-27T14:05:48;29.20;;;21.17;;
23222;SDS011;11780;13.904;100.620;2023-05-27T14:08:19;27.65;;;20.95;;
23222;SDS011;11780;13.904;100.620;2023-05-27T14:10:50;28.70;;;20.70;;
23222;SDS011;11780;13.904;100.620;2023-05-27T14:13:20;23.77;;;20.10;;
23222;SDS011;11780;13.904;100.620;2023-05-27T14:15:51;29.25;;;19.80;;
23222;SDS011;11780;13.904;100.620;2023-05-27T14:18:23;22.90;;;20.55;;
23222;SDS011;11780;13.904;100.620;2023-05-27T14:20:53;27.90;;;19.60;;
23222;SDS011;11780;13.904;100.620;2023-05-27T14:23:23;25.83;;;19.03;;
23222;SDS011;11780;13.904;100.620;2023-05-27T14:25:54;29.30;;;19.87;;
23222;SDS011;11780;13.904;100.620;2023-05-27T14:28:24;22.87;;;19.17;;
23222;SDS011;11780;13.904;100.620;2023-05-27T14:30:55;28.75;;;19.40;;
23222;SDS011;11780;13.904;100.620;2023-05-27T14:33:25;24.73;;;18.73;;
23222;SDS011;11780;13.904;100.620;2023-05-27T14:35:56;24.23;;;17.93;;
23222;SDS011;11780;13.904;100.620;2023-05-27T14:38:26;23.27;;;18.38;;
23222;SDS011;11780;13.904;100.620;2023-05-27T14:40:56;25.38;;;17.80;;
23222;SDS011;11780;13.904;100.620;2023-05-27T14:43:28;24.05;;;19.30;;
23222;SDS011;11780;13.904;100.620;2023-05-27T14:45:58;24.02;;;18.98;;
23222;SDS011;11780;13.904;100.620;2023-05-27T14:48:29;22.05;;;17.52;;
23222;SDS011;11780;13.904;100.620;2023-05-27T14:50:59;23.20;;;18.07;;
23222;SDS011;11780;13.904;100.620;2023-05-27T14:53:34;19.42;;;17.50;;
23222;SDS011;11780;13.904;100.620;2023-05-27T14:56:04;24.07;;;19.13;;
23222;SDS011;11780;13.904;100.620;2023-05-27T14:58:34;25.65;;;19.00;;
23222;SDS011;11780;13.904;100.620;2023-05-27T15:01:05;19.48;;;17.42;;
23222;SDS011;11780;13.904;100.620;2023-05-27T15:03:35;22.87;;;18.63;;
23222;SDS011;11780;13.904;100.620;2023-05-27T15:06:06;21.70;;;18.60;;
23222;SDS011;11780;13.904;100.620;2023-05-27T15:08:38;21.38;;;19.17;;
23222;SDS011;11780;13.904;100.620;2023-05-27T15:11:09;21.02;;;18.60;;
23222;SDS011;11780;13.904;100.620;2023-05-27T15:13:40;21.10;;;16.90;;
23222;SDS011;11780;13.904;100.620;2023-05-27T15:16:11;21.70;;;17.73;;
23222;SDS011;11780;13.904;100.620;2023-05-27T15:18:41;26.50;;;18.77;;
23222;SDS011;11780;13.904;100.620;2023-05-27T15:21:11;22.10;;;17.20;;
23222;SDS011;11780;13.904;100.620;2023-05-27T15:26:12;25.50;;;18.60;;
23222;SDS011;11780;13.904;100.620;2023-05-27T15:28:44;19.33;;;16.85;;
23222;SDS011;11780;13.904;100.620;2023-05-27T15:31:14;22.13;;;17.77;;
23222;SDS011;11780;13.904;100.620;2023-05-27T15:33:45;23.73;;;18.02;;
23222;SDS011;11780;13.904;100.620;2023-05-27T15:36:16;23.42;;;17.50;;
23222;SDS011;11780;13.904;100.620;2023-05-27T15:38:46;19.92;;;17.48;;
23222;SDS011;11780;13.904;100.620;2023-05-27T15:41:17;22.67;;;17.43;;
23222;SDS011;11780;13.904;100.620;2023-05-27T15:43:47;20.52;;;17.40;;
23222;SDS011;11780;13.904;100.620;2023-05-27T15:46:17;23.98;;;18.52;;
23222;SDS011;11780;13.904;100.620;2023-05-27T15:48:50;21.75;;;17.25;;
23222;SDS011;11780;13.904;100.620;2023-05-27T15:51:21;18.90;;;16.97;;
23222;SDS011;11780;13.904;100.620;2023-05-27T15:53:51;20.47;;;16.67;;
23222;SDS011;11780;13.904;100.620;2023-05-27T15:56:21;21.97;;;18.13;;
23222;SDS011;11780;13.904;100.620;2023-05-27T15:58:52;18.52;;;16.63;;
23222;SDS011;11780;13.904;100.620;2023-05-27T16:01:22;22.33;;;18.70;;
23222;SDS011;11780;13.904;100.620;2023-05-27T16:03:52;19.83;;;17.53;;
23222;SDS011;11780;13.904;100.620;2023-05-27T16:06:23;23.87;;;17.33;;
23222;SDS011;11780;13.904;100.620;2023-05-27T16:08:53;22.43;;;17.40;;
23222;SDS011;11780;13.904;100.620;2023-05-27T16:11:24;18.83;;;16.90;;
23222;SDS011;11780;13.904;100.620;2023-05-27T16:13:54;18.35;;;16.42;;
23222;SDS011;11780;13.904;100.620;2023-05-27T16:16:25;21.58;;;17.25;;
23222;SDS011;11780;13.904;100.620;2023-05-27T16:18:58;19.17;;;17.25;;
23222;SDS011;11780;13.904;100.620;2023-05-27T16:21:28;19.70;;;16.42;;
23222;SDS011;11780;13.904;100.620;2023-05-27T16:23:59;22.88;;;17.23;;
23222;SDS011;11780;13.904;100.620;2023-05-27T16:26:34;19.50;;;16.95;;
23222;SDS011;11780;13.904;100.620;2023-05-27T16:29:04;22.08;;;17.40;;
23222;SDS011;11780;13.904;100.620;2023-05-27T16:31:35;20.33;;;17.83;;
23222;SDS011;11780;13.904;100.620;2023-05-27T16:34:06;23.10;;;17.20;;
23222;SDS011;11780;13.904;100.620;2023-05-27T16:36:37;19.08;;;16.80;;
23222;SDS011;11780;13.904;100.620;2023-05-27T16:39:07;20.52;;;17.27;;
23222;SDS011;11780;13.904;100.620;2023-05-27T16:41:37;20.50;;;17.58;;
23222;SDS011;11780;13.904;100.620;2023-05-27T16:44:07;20.85;;;16.00;;
23222;SDS011;11780;13.904;100.620;2023-05-27T16:46:38;21.70;;;16.08;;
23222;SDS011;11780;13.904;100.620;2023-05-27T16:49:08;19.87;;;15.13;;
23222;SDS011;11780;13.904;100.620;2023-05-27T16:51:39;19.47;;;15.70;;
23222;SDS011;11780;13.904;100.620;2023-05-27T16:54:09;20.90;;;14.90;;
23222;SDS011;11780;13.904;100.620;2023-05-27T16:56:40;18.00;;;15.73;;
23222;SDS011;11780;13.904;100.620;2023-05-27T16:59:11;21.17;;;16.10;;
23222;SDS011;11780;13.904;100.620;2023-05-27T17:01:41;22.87;;;14.80;;
23222;SDS011;11780;13.904;100.620;2023-05-27T17:04:12;17.00;;;15.07;;
23222;SDS011;11780;13.904;100.620;2023-05-27T17:06:42;22.77;;;15.55;;
23222;SDS011;11780;13.904;100.620;2023-05-27T17:09:13;18.77;;;14.88;;
23222;SDS011;11780;13.904;100.620;2023-05-27T17:11:43;17.83;;;15.75;;
23222;SDS011;11780;13.904;100.620;2023-05-27T17:14:14;16.23;;;14.65;;
23222;SDS011;11780;13.904;100.620;2023-05-27T17:16:45;24.37;;;15.80;;